Time,TemperatureF,DewpointF,PressureIn,WindDirection,WindDirectionDegrees,WindSpeedMPH,WindSpeedGustMPH,Humidity,HourlyPrecipIn,Conditions,Clouds,dailyrainin,SoftwareType,DateUTC
2013-04-10 00:03:00,54.0,-99.9,-100.00,North,0,0.0,0.0,-999,0.00,,,0.00,,2013-04-10 04:03:00,
2013-04-10 00:13:00,54.0,-99.9,-100.00,North,0,0.0,0.0,-999,0.00,,,0.00,,2013-04-10 04:13:00,
2013-04-10 00:23:00,53.0,-99.9,-100.00,North,0,0.0,0.0,-999,0.00,,,0.00,,2013-04-10 04:23:00,
2013-04-10 00:33:00,53.0,-99.9,-100.00,North,0,2.0,5.0,-999,0.00,,,0.00,,2013-04-10 04:33:00,
2013-04-10 00:43:00,53.0,-99.9,-100.00,North,0,2.0,5.0,-999,0.00,,,0.00,,2013-04-10 04:43:00,
2013-04-10 00:53:00,54.0,-99.9,-100.00,North,0,1.0,3.0,-999,0.00,,,0.00,,2013-04-10 04:53:00,
2013-04-10 01:03:00,54.0,-99.9,-100.00,North,0,1.0,3.0,-999,0.00,,,0.00,,2013-04-10 05:03:00,
2013-04-10 01:13:00,54.0,-99.9,-100.00,North,0,1.0,3.0,-999,0.00,,,0.00,,2013-04-10 05:13:00,
2013-04-10 01:23:00,54.0,-99.9,-100.00,North,0,0.0,3.0,-999,0.00,,,0.00,,2013-04-10 05:23:00,
2013-04-10 01:33:00,54.0,-99.9,-100.00,North,0,1.0,3.0,-999,0.00,,,0.00,,2013-04-10 05:33:00,
2013-04-10 01:43:00,54.0,-99.9,-100.00,North,0,1.0,3.0,-999,0.00,,,0.00,,2013-04-10 05:43:00,
2013-04-10 01:54:00,55.0,-99.9,-100.00,North,0,3.0,5.0,-999,0.00,,,0.00,,2013-04-10 05:54:00,
2013-04-10 02:03:00,55.0,-99.9,-100.00,North,0,2.0,3.0,-999,0.00,,,0.00,,2013-04-10 06:03:00,
2013-04-10 02:13:00,55.0,-99.9,-100.00,North,0,0.0,3.0,-999,0.00,,,0.00,,2013-04-10 06:13:00,
2013-04-10 02:22:00,55.0,-99.9,-100.00,North,0,0.0,3.0,-999,0.00,,,0.00,,2013-04-10 06:22:00,
2013-04-10 02:32:00,55.0,-99.9,-100.00,North,1,1.0,3.0,-999,0.00,,,0.00,,2013-04-10 06:32:00,
2013-04-10 02:43:00,55.0,-99.9,-100.00,North,1,1.0,3.0,-999,0.00,,,0.00,,2013-04-10 06:43:00,
2013-04-10 02:52:00,55.0,-99.9,-100.00,North,0,13.0,23.0,-999,0.00,,,0.00,,2013-04-10 06:52:00,
2013-04-10 03:03:00,52.0,-99.9,-100.00,North,0,6.0,17.0,-999,0.05,,,0.05,,2013-04-10 07:03:00,
2013-04-10 03:12:00,52.0,-99.9,-100.00,North,0,6.0,17.0,-999,0.05,,,0.05,,2013-04-10 07:12:00,
2013-04-10 03:23:00,51.0,-99.9,-100.00,North,1,5.0,12.0,-999,0.06,,,0.06,,2013-04-10 07:23:00,
2013-04-10 03:33:00,50.0,-99.9,-100.00,North,0,2.0,9.0,-999,0.07,,,0.07,,2013-04-10 07:33:00,
2013-04-10 03:43:00,50.0,-99.9,-100.00,North,0,2.0,9.0,-999,0.07,,,0.07,,2013-04-10 07:43:00,
2013-04-10 03:52:00,50.0,-99.9,-100.00,North,1,3.0,8.0,-999,0.07,,,0.07,,2013-04-10 07:52:00,
2013-04-10 04:02:00,50.0,-99.9,-100.00,North,0,4.0,9.0,-999,0.02,,,0.07,,2013-04-10 08:02:00,
2013-04-10 04:12:00,50.0,-99.9,-100.00,North,0,4.0,9.0,-999,0.02,,,0.07,,2013-04-10 08:12:00,
2013-04-10 04:22:00,50.0,-99.9,-100.00,North,1,2.0,7.0,-999,0.01,,,0.07,,2013-04-10 08:22:00,
2013-04-10 04:32:00,49.0,-99.9,-100.00,North,1,2.0,6.0,-999,0.00,,,0.07,,2013-04-10 08:32:00,
2013-04-10 04:43:00,49.0,-99.9,-100.00,North,1,2.0,6.0,-999,0.00,,,0.07,,2013-04-10 08:43:00,
2013-04-10 04:52:00,49.0,-99.9,-100.00,North,0,0.0,5.0,-999,0.00,,,0.07,,2013-04-10 08:52:00,
2013-04-10 05:03:00,50.0,-99.9,-100.00,North,0,3.0,5.0,-999,0.00,,,0.07,,2013-04-10 09:03:00,
2013-04-10 05:13:00,50.0,-99.9,-100.00,North,0,1.0,5.0,-999,0.00,,,0.07,,2013-04-10 09:13:00,
2013-04-10 05:23:00,50.0,-99.9,-100.00,North,0,1.0,5.0,-999,0.00,,,0.07,,2013-04-10 09:23:00,
2013-04-10 05:33:00,50.0,-99.9,-100.00,North,0,1.0,2.0,-999,0.00,,,0.07,,2013-04-10 09:33:00,
2013-04-10 05:43:00,50.0,-99.9,-100.00,North,0,1.0,2.0,-999,0.00,,,0.07,,2013-04-10 09:43:00,
2013-04-10 05:53:00,50.0,-99.9,-100.00,North,0,0.0,2.0,-999,0.00,,,0.07,,2013-04-10 09:53:00,
2013-04-10 06:03:00,49.0,-99.9,-100.00,North,0,0.0,0.0,-999,0.00,,,0.07,,2013-04-10 10:03:00,
2013-04-10 06:13:00,50.0,-99.9,-100.00,North,0,1.0,3.0,-999,0.00,,,0.07,,2013-04-10 10:13:00,
2013-04-10 06:23:00,50.0,-99.9,-100.00,North,0,1.0,3.0,-999,0.00,,,0.07,,2013-04-10 10:23:00,
2013-04-10 06:33:00,49.0,-99.9,-100.00,North,0,0.0,0.0,-999,0.00,,,0.07,,2013-04-10 10:33:00,
2013-04-10 06:43:00,49.0,-99.9,-100.00,North,0,0.0,0.0,-999,0.00,,,0.07,,2013-04-10 10:43:00,
2013-04-10 06:53:00,48.0,-99.9,-100.00,North,0,0.0,0.0,-999,0.00,,,0.07,,2013-04-10 10:53:00,
2013-04-10 07:03:00,48.0,-99.9,-100.00,North,0,0.0,0.0,-999,0.00,,,0.07,,2013-04-10 11:03:00,
2013-04-10 07:12:00,48.0,-99.9,-100.00,North,0,0.0,0.0,-999,0.00,,,0.07,,2013-04-10 11:12:00,
2013-04-10 07:22:00,49.0,-99.9,-100.00,North,0,0.0,2.0,-999,0.00,,,0.07,,2013-04-10 11:22:00,
2013-04-10 07:33:00,50.0,-99.9,-100.00,North,0,0.0,0.0,-999,0.00,,,0.07,,2013-04-10 11:33:00,
2013-04-10 07:42:00,50.0,-99.9,-100.00,North,0,0.0,0.0,-999,0.00,,,0.07,,2013-04-10 11:42:00,
2013-04-10 07:53:00,51.0,-99.9,-100.00,North,0,0.0,0.0,-999,0.00,,,0.07,,2013-04-10 11:53:00,
2013-04-10 08:03:00,52.0,-99.9,-100.00,North,0,0.0,2.0,-999,0.00,,,0.07,,2013-04-10 12:03:00,
2013-04-10 08:12:00,52.0,-99.9,-100.00,North,0,0.0,2.0,-999,0.00,,,0.07,,2013-04-10 12:12:00,
2013-04-10 08:23:00,52.0,-99.9,-100.00,North,0,0.0,2.0,-999,0.00,,,0.07,,2013-04-10 12:23:00,
2013-04-10 08:33:00,53.0,-99.9,-100.00,North,0,0.0,2.0,-999,0.00,,,0.07,,2013-04-10 12:33:00,
2013-04-10 08:43:00,53.0,-99.9,-100.00,North,0,0.0,2.0,-999,0.00,,,0.07,,2013-04-10 12:43:00,
2013-04-10 08:52:00,53.0,-99.9,-100.00,North,0,0.0,0.0,-999,0.00,,,0.07,,2013-04-10 12:52:00,
2013-04-10 09:02:00,54.0,-99.9,-100.00,North,0,0.0,3.0,-999,0.00,,,0.07,,2013-04-10 13:02:00,
2013-04-10 09:12:00,54.0,-99.9,-100.00,North,0,0.0,3.0,-999,0.00,,,0.07,,2013-04-10 13:12:00,
2013-04-10 09:24:00,55.0,-99.9,-100.00,North,0,3.0,5.0,-999,0.00,,,0.07,,2013-04-10 13:24:00,
2013-04-10 09:33:00,55.0,-99.9,-100.00,North,0,3.0,7.0,-999,0.00,,,0.07,,2013-04-10 13:33:00,
2013-04-10 09:43:00,55.0,-99.9,-100.00,North,0,3.0,7.0,-999,0.00,,,0.07,,2013-04-10 13:43:00,
2013-04-10 09:53:00,55.0,-99.9,-100.00,North,0,2.0,3.0,-999,0.00,,,0.07,,2013-04-10 13:53:00,
2013-04-10 10:02:00,60.0,-99.9,-100.00,North,0,0.0,3.0,-999,0.00,,,0.07,,2013-04-10 14:02:00,
2013-04-10 10:13:00,60.0,-99.9,-100.00,North,0,0.0,3.0,-999,0.00,,,0.07,,2013-04-10 14:13:00,
2013-04-10 10:22:00,61.0,-99.9,-100.00,North,1,2.0,6.0,-999,0.00,,,0.07,,2013-04-10 14:22:00,
2013-04-10 10:33:00,61.0,-99.9,-100.00,North,0,0.0,3.0,-999,0.00,,,0.07,,2013-04-10 14:33:00,
2013-04-10 10:42:00,61.0,-99.9,-100.00,North,0,0.0,3.0,-999,0.00,,,0.07,,2013-04-10 14:42:00,
2013-04-10 10:52:00,60.0,-99.9,-100.00,North,0,2.0,3.0,-999,0.00,,,0.07,,2013-04-10 14:52:00,
2013-04-10 11:03:00,61.0,-99.9,-100.00,North,0,2.0,6.0,-999,0.00,,,0.07,,2013-04-10 15:03:00,
2013-04-10 11:12:00,61.0,-99.9,-100.00,North,0,2.0,6.0,-999,0.00,,,0.07,,2013-04-10 15:12:00,
2013-04-10 11:23:00,59.0,-99.9,-100.00,North,0,1.0,5.0,-999,0.00,,,0.07,,2013-04-10 15:23:00,
2013-04-10 11:33:00,58.0,-99.9,-100.00,North,0,3.0,5.0,-999,0.00,,,0.07,,2013-04-10 15:33:00,
2013-04-10 11:43:00,58.0,-99.9,-100.00,North,0,3.0,5.0,-999,0.00,,,0.07,,2013-04-10 15:43:00,
2013-04-10 11:53:00,59.0,-99.9,-100.00,North,1,1.0,5.0,-999,0.00,,,0.07,,2013-04-10 15:53:00,
2013-04-10 12:03:00,59.0,-99.9,-100.00,North,0,5.0,8.0,-999,0.00,,,0.07,,2013-04-10 16:03:00,
2013-04-10 12:13:00,59.0,-99.9,-100.00,North,0,5.0,8.0,-999,0.00,,,0.07,,2013-04-10 16:13:00,
2013-04-10 12:23:00,59.0,-99.9,-100.00,North,0,3.0,7.0,-999,0.00,,,0.07,,2013-04-10 16:23:00,
2013-04-10 12:34:00,59.0,-99.9,-100.00,North,1,4.0,8.0,-999,0.00,,,0.07,,2013-04-10 16:34:00,
2013-04-10 12:44:00,59.0,-99.9,-100.00,North,1,4.0,8.0,-999,0.00,,,0.07,,2013-04-10 16:44:00,
2013-04-10 12:53:00,60.0,-99.9,-100.00,North,1,5.0,8.0,-999,0.00,,,0.07,,2013-04-10 16:53:00,
2013-04-10 13:03:00,61.0,-99.9,-100.00,North,0,3.0,7.0,-999,0.00,,,0.07,,2013-04-10 17:03:00,
2013-04-10 13:13:00,61.0,-99.9,-100.00,North,1,3.0,8.0,-999,0.00,,,0.07,,2013-04-10 17:13:00,
2013-04-10 13:23:00,61.0,-99.9,-100.00,North,1,3.0,8.0,-999,0.00,,,0.07,,2013-04-10 17:23:00,
2013-04-10 13:34:00,61.0,-99.9,-100.00,North,0,4.0,9.0,-999,0.00,,,0.07,,2013-04-10 17:34:00,
2013-04-10 13:43:00,61.0,-99.9,-100.00,North,0,4.0,9.0,-999,0.00,,,0.07,,2013-04-10 17:43:00,
2013-04-10 13:53:00,60.0,-99.9,-100.00,North,0,3.0,7.0,-999,0.00,,,0.07,,2013-04-10 17:53:00,
2013-04-10 14:03:00,60.0,-99.9,-100.00,North,0,3.0,7.0,-999,0.00,,,0.07,,2013-04-10 18:03:00,
2013-04-10 14:13:00,60.0,-99.9,-100.00,North,0,3.0,7.0,-999,0.00,,,0.07,,2013-04-10 18:13:00,
2013-04-10 14:23:00,61.0,-99.9,-100.00,North,0,3.0,6.0,-999,0.00,,,0.07,,2013-04-10 18:23:00,
2013-04-10 14:33:00,60.0,-99.9,-100.00,North,0,6.0,8.0,-999,0.00,,,0.07,,2013-04-10 18:33:00,
2013-04-10 14:43:00,60.0,-99.9,-100.00,North,0,6.0,8.0,-999,0.00,,,0.07,,2013-04-10 18:43:00,
2013-04-10 14:53:00,61.0,-99.9,-100.00,North,0,3.0,9.0,-999,0.00,,,0.07,,2013-04-10 18:53:00,
2013-04-10 15:04:00,62.0,-99.9,-100.00,North,0,4.0,8.0,-999,0.00,,,0.07,,2013-04-10 19:04:00,
2013-04-10 15:13:00,62.0,-99.9,-100.00,North,0,4.0,8.0,-999,0.00,,,0.07,,2013-04-10 19:13:00,
2013-04-10 15:22:00,63.0,-99.9,-100.00,North,0,3.0,9.0,-999,0.00,,,0.07,,2013-04-10 19:22:00,
2013-04-10 15:34:00,64.0,-99.9,-100.00,North,1,3.0,8.0,-999,0.00,,,0.07,,2013-04-10 19:34:00,
2013-04-10 15:42:00,64.0,-99.9,-100.00,North,1,3.0,8.0,-999,0.00,,,0.07,,2013-04-10 19:42:00,
2013-04-10 15:53:00,64.0,-99.9,-100.00,North,0,4.0,9.0,-999,0.00,,,0.07,,2013-04-10 19:53:00,
2013-04-10 16:03:00,63.0,-99.9,-100.00,North,0,2.0,6.0,-999,0.00,,,0.07,,2013-04-10 20:03:00,
2013-04-10 16:12:00,63.0,-99.9,-100.00,North,0,2.0,6.0,-999,0.00,,,0.07,,2013-04-10 20:12:00,
2013-04-10 16:24:00,65.0,-99.9,-100.00,North,1,2.0,7.0,-999,0.00,,,0.07,,2013-04-10 20:24:00,
2013-04-10 16:33:00,64.0,-99.9,-100.00,North,0,3.0,8.0,-999,0.00,,,0.07,,2013-04-10 20:33:00,
2013-04-10 16:43:00,64.0,-99.9,-100.00,North,0,3.0,8.0,-999,0.00,,,0.07,,2013-04-10 20:43:00,
2013-04-10 16:53:00,64.0,-99.9,-100.00,North,1,3.0,6.0,-999,0.00,,,0.07,,2013-04-10 20:53:00,
2013-04-10 17:03:00,66.0,-99.9,-100.00,North,0,5.0,7.0,-999,0.00,,,0.07,,2013-04-10 21:03:00,
2013-04-10 17:13:00,66.0,-99.9,-100.00,North,0,5.0,7.0,-999,0.00,,,0.07,,2013-04-10 21:13:00,
2013-04-10 17:22:00,67.0,-99.9,-100.00,North,0,4.0,7.0,-999,0.00,,,0.07,,2013-04-10 21:22:00,
2013-04-10 17:33:00,66.0,-99.9,-100.00,North,0,3.0,7.0,-999,0.00,,,0.07,,2013-04-10 21:33:00,
2013-04-10 17:43:00,66.0,-99.9,-100.00,North,0,3.0,7.0,-999,0.00,,,0.07,,2013-04-10 21:43:00,
2013-04-10 17:53:00,65.0,-99.9,-100.00,North,0,3.0,6.0,-999,0.00,,,0.07,,2013-04-10 21:53:00,
2013-04-10 18:03:00,65.0,-99.9,-100.00,North,0,4.0,6.0,-999,0.00,,,0.07,,2013-04-10 22:03:00,
2013-04-10 18:13:00,65.0,-99.9,-100.00,North,0,4.0,6.0,-999,0.00,,,0.07,,2013-04-10 22:13:00,
2013-04-10 18:23:00,64.0,-99.9,-100.00,North,0,2.0,5.0,-999,0.00,,,0.07,,2013-04-10 22:23:00,
2013-04-10 18:34:00,63.0,-99.9,-100.00,North,0,2.0,5.0,-999,0.00,,,0.07,,2013-04-10 22:34:00,
2013-04-10 18:43:00,63.0,-99.9,-100.00,North,0,2.0,5.0,-999,0.00,,,0.07,,2013-04-10 22:43:00,
2013-04-10 18:53:00,63.0,-99.9,-100.00,North,0,1.0,5.0,-999,0.00,,,0.07,,2013-04-10 22:53:00,
2013-04-10 19:03:00,60.0,-99.9,-100.00,North,1,4.0,12.0,-999,0.05,,,0.12,,2013-04-10 23:03:00,
2013-04-10 19:13:00,60.0,-99.9,-100.00,North,1,4.0,12.0,-999,0.05,,,0.12,,2013-04-10 23:13:00,
2013-04-10 19:23:00,59.0,-99.9,-100.00,North,2,0.0,5.0,-999,0.09,,,0.16,,2013-04-10 23:23:00,
2013-04-10 19:33:00,58.0,-99.9,-100.00,North,1,3.0,6.0,-999,0.17,,,0.24,,2013-04-10 23:33:00,
2013-04-10 19:43:00,58.0,-99.9,-100.00,North,1,3.0,6.0,-999,0.17,,,0.24,,2013-04-10 23:43:00,
2013-04-10 19:53:00,57.0,-99.9,-100.00,North,1,2.0,8.0,-999,0.19,,,0.26,,2013-04-10 23:53:00,
2013-04-10 20:02:00,57.0,-99.9,-100.00,North,1,0.0,5.0,-999,0.15,,,0.27,,2013-04-11 00:02:00,
2013-04-10 20:13:00,57.0,-99.9,-100.00,North,1,0.0,5.0,-999,0.15,,,0.27,,2013-04-11 00:13:00,
2013-04-10 20:23:00,57.0,-99.9,-100.00,North,1,0.0,3.0,-999,0.11,,,0.27,,2013-04-11 00:23:00,
2013-04-10 20:32:00,56.0,-99.9,-100.00,North,0,2.0,5.0,-999,0.03,,,0.27,,2013-04-11 00:32:00,
2013-04-10 20:43:00,56.0,-99.9,-100.00,North,0,2.0,5.0,-999,0.03,,,0.27,,2013-04-11 00:43:00,
2013-04-10 20:53:00,56.0,-99.9,-100.00,North,0,2.0,7.0,-999,0.01,,,0.27,,2013-04-11 00:53:00,
2013-04-10 21:02:00,55.0,-99.9,-100.00,North,1,0.0,0.0,-999,0.00,,,0.27,,2013-04-11 01:02:00,
2013-04-10 21:13:00,55.0,-99.9,-100.00,North,1,0.0,0.0,-999,0.00,,,0.27,,2013-04-11 01:13:00,
2013-04-10 21:22:00,55.0,-99.9,-100.00,North,1,0.0,2.0,-999,0.00,,,0.27,,2013-04-11 01:22:00,
2013-04-10 21:33:00,55.0,-99.9,-100.00,North,4,3.0,5.0,-999,0.00,,,0.27,,2013-04-11 01:33:00,
2013-04-10 21:42:00,55.0,-99.9,-100.00,North,4,3.0,5.0,-999,0.00,,,0.27,,2013-04-11 01:42:00,
2013-04-10 21:53:00,56.0,-99.9,-100.00,North,2,2.0,5.0,-999,0.05,,,0.32,,2013-04-11 01:53:00,
2013-04-10 22:03:00,56.0,-99.9,-100.00,North,2,0.0,3.0,-999,0.06,,,0.33,,2013-04-11 02:03:00,
2013-04-10 22:13:00,56.0,-99.9,-100.00,North,2,0.0,3.0,-999,0.06,,,0.33,,2013-04-11 02:13:00,
2013-04-10 22:22:00,56.0,-99.9,-100.00,North,2,1.0,3.0,-999,0.06,,,0.33,,2013-04-11 02:22:00,
2013-04-10 22:32:00,55.0,-99.9,-100.00,North,2,0.0,1.0,-999,0.08,,,0.35,,2013-04-11 02:32:00,
2013-04-10 22:42:00,55.0,-99.9,-100.00,North,2,0.0,1.0,-999,0.08,,,0.35,,2013-04-11 02:42:00,
2013-04-10 22:53:00,55.0,-99.9,-100.00,North,2,0.0,1.0,-999,0.03,,,0.35,,2013-04-11 02:53:00,
2013-04-10 23:03:00,55.0,-99.9,-100.00,North,2,0.0,0.0,-999,0.02,,,0.35,,2013-04-11 03:03:00,
2013-04-10 23:12:00,55.0,-99.9,-100.00,North,2,0.0,0.0,-999,0.02,,,0.35,,2013-04-11 03:12:00,
2013-04-10 23:22:00,55.0,-99.9,-100.00,North,2,0.0,0.0,-999,0.02,,,0.35,,2013-04-11 03:22:00,
2013-04-10 23:33:00,55.0,-99.9,-100.00,North,2,0.0,0.0,-999,0.00,,,0.35,,2013-04-11 03:33:00,
2013-04-10 23:43:00,55.0,-99.9,-100.00,North,2,0.0,0.0,-999,0.00,,,0.35,,2013-04-11 03:43:00,
2013-04-10 23:54:00,55.0,-99.9,-100.00,North,2,0.0,0.0,-999,0.00,,,0.35,,2013-04-11 03:54:00,